sensor_id;sensor_type;location;lat;lon;timestamp;P1;durP1;ratioP1;P2;durP2;ratioP2
20271;SDS011;10295;49.812;9.866;2023-05-16T00:02:13;11.27;;;5.63;;
20271;SDS011;10295;49.812;9.866;2023-05-16T00:04:41;14.87;;;7.20;;
20271;SDS011;10295;49.812;9.866;2023-05-16T00:07:08;12.23;;;6.80;;
20271;SDS011;10295;49.812;9.866;2023-05-16T00:09:35;14.40;;;7.10;;
20271;SDS011;10295;49.812;9.866;2023-05-16T00:12:02;11.77;;;6.70;;
20271;SDS011;10295;49.812;9.866;2023-05-16T00:14:30;13.13;;;6.43;;
20271;SDS011;10295;49.812;9.866;2023-05-16T00:16:57;12.40;;;6.60;;
20271;SDS011;10295;49.812;9.866;2023-05-16T00:19:24;15.50;;;6.67;;
20271;SDS011;10295;49.812;9.866;2023-05-16T00:21:52;12.27;;;6.80;;
20271;SDS011;10295;49.812;9.866;2023-05-16T00:24:19;15.67;;;6.50;;
20271;SDS011;10295;49.812;9.866;2023-05-16T00:26:47;14.37;;;7.33;;
20271;SDS011;10295;49.812;9.866;2023-05-16T00:29:14;17.43;;;7.23;;
20271;SDS011;10295;49.812;9.866;2023-05-16T00:31:41;16.80;;;7.73;;
20271;SDS011;10295;49.812;9.866;2023-05-16T00:34:08;12.37;;;6.63;;
20271;SDS011;10295;49.812;9.866;2023-05-16T00:36:35;15.60;;;7.20;;
20271;SDS011;10295;49.812;9.866;2023-05-16T00:39:03;12.07;;;7.00;;
20271;SDS011;10295;49.812;9.866;2023-05-16T00:41:30;12.77;;;7.60;;
20271;SDS011;10295;49.812;9.866;2023-05-16T00:43:57;13.63;;;7.63;;
20271;SDS011;10295;49.812;9.866;2023-05-16T00:46:24;14.67;;;7.60;;
20271;SDS011;10295;49.812;9.866;2023-05-16T00:48:52;17.13;;;7.30;;
20271;SDS011;10295;49.812;9.866;2023-05-16T00:51:19;13.97;;;7.90;;
20271;SDS011;10295;49.812;9.866;2023-05-16T00:53:46;15.37;;;7.30;;
20271;SDS011;10295;49.812;9.866;2023-05-16T00:56:13;17.03;;;8.20;;
20271;SDS011;10295;49.812;9.866;2023-05-16T00:58:41;12.97;;;7.30;;
20271;SDS011;10295;49.812;9.866;2023-05-16T01:01:09;12.57;;;7.00;;
20271;SDS011;10295;49.812;9.866;2023-05-16T01:03:37;13.13;;;7.60;;
20271;SDS011;10295;49.812;9.866;2023-05-16T01:06:05;13.87;;;7.73;;
20271;SDS011;10295;49.812;9.866;2023-05-16T01:08:32;12.70;;;7.70;;
20271;SDS011;10295;49.812;9.866;2023-05-16T01:11:06;16.77;;;8.27;;
20271;SDS011;10295;49.812;9.866;2023-05-16T01:13:39;14.00;;;8.50;;
20271;SDS011;10295;49.812;9.866;2023-05-16T01:18:41;17.60;;;8.30;;
20271;SDS011;10295;49.812;9.866;2023-05-16T01:21:15;14.23;;;8.30;;
20271;SDS011;10295;49.812;9.866;2023-05-16T01:23:48;16.93;;;8.90;;
20271;SDS011;10295;49.812;9.866;2023-05-16T01:26:18;14.20;;;7.80;;
20271;SDS011;10295;49.812;9.866;2023-05-16T01:28:46;14.67;;;8.53;;
20271;SDS011;10295;49.812;9.866;2023-05-16T01:31:14;12.73;;;7.80;;
20271;SDS011;10295;49.812;9.866;2023-05-16T01:33:42;14.67;;;7.80;;
20271;SDS011;10295;49.812;9.866;2023-05-16T01:38:58;14.27;;;8.13;;
20271;SDS011;10295;49.812;9.866;2023-05-16T01:41:30;13.87;;;8.13;;
20271;SDS011;10295;49.812;9.866;2023-05-16T01:44:04;14.57;;;8.13;;
20271;SDS011;10295;49.812;9.866;2023-05-16T01:46:35;15.43;;;8.20;;
20271;SDS011;10295;49.812;9.866;2023-05-16T01:49:04;15.17;;;7.97;;
20271;SDS011;10295;49.812;9.866;2023-05-16T01:51:42;15.43;;;7.63;;
20271;SDS011;10295;49.812;9.866;2023-05-16T01:54:11;14.60;;;7.73;;
20271;SDS011;10295;49.812;9.866;2023-05-16T01:56:39;13.90;;;7.97;;
20271;SDS011;10295;49.812;9.866;2023-05-16T01:59:07;13.90;;;7.83;;
20271;SDS011;10295;49.812;9.866;2023-05-16T02:01:36;13.77;;;7.87;;
20271;SDS011;10295;49.812;9.866;2023-05-16T02:04:04;14.23;;;7.57;;
20271;SDS011;10295;49.812;9.866;2023-05-16T02:06:31;14.57;;;8.00;;
20271;SDS011;10295;49.812;9.866;2023-05-16T02:08:58;14.80;;;7.77;;
20271;SDS011;10295;49.812;9.866;2023-05-16T02:11:25;15.10;;;7.77;;
20271;SDS011;10295;49.812;9.866;2023-05-16T02:13:52;14.57;;;7.93;;
20271;SDS011;10295;49.812;9.866;2023-05-16T02:16:19;15.53;;;8.57;;
20271;SDS011;10295;49.812;9.866;2023-05-16T02:18:47;13.63;;;7.87;;
20271;SDS011;10295;49.812;9.866;2023-05-16T02:21:14;12.97;;;7.77;;
20271;SDS011;10295;49.812;9.866;2023-05-16T02:23:41;16.90;;;8.43;;
20271;SDS011;10295;49.812;9.866;2023-05-16T02:26:08;16.13;;;7.80;;
20271;SDS011;10295;49.812;9.866;2023-05-16T02:28:35;18.53;;;8.93;;
20271;SDS011;10295;49.812;9.866;2023-05-16T02:31:02;14.60;;;8.40;;
20271;SDS011;10295;49.812;9.866;2023-05-16T02:33:29;13.67;;;7.90;;
20271;SDS011;10295;49.812;9.866;2023-05-16T02:35:56;17.17;;;8.50;;
20271;SDS011;10295;49.812;9.866;2023-05-16T02:38:24;16.13;;;8.50;;
20271;SDS011;10295;49.812;9.866;2023-05-16T02:40:51;13.07;;;7.77;;
20271;SDS011;10295;49.812;9.866;2023-05-16T02:43:18;13.13;;;8.13;;
20271;SDS011;10295;49.812;9.866;2023-05-16T02:45:45;16.83;;;8.10;;
20271;SDS011;10295;49.812;9.866;2023-05-16T02:48:12;18.93;;;8.20;;
20271;SDS011;10295;49.812;9.866;2023-05-16T02:50:39;14.60;;;8.77;;
20271;SDS011;10295;49.812;9.866;2023-05-16T02:53:07;16.20;;;8.27;;
20271;SDS011;10295;49.812;9.866;2023-05-16T02:55:34;20.17;;;9.10;;
20271;SDS011;10295;49.812;9.866;2023-05-16T02:58:02;15.30;;;8.80;;
20271;SDS011;10295;49.812;9.866;2023-05-16T03:00:29;16.43;;;9.33;;
20271;SDS011;10295;49.812;9.866;2023-05-16T03:02:56;16.27;;;10.10;;
20271;SDS011;10295;49.812;9.866;2023-05-16T03:05:23;18.70;;;10.27;;
20271;SDS011;10295;49.812;9.866;2023-05-16T03:07:52;19.23;;;10.63;;
20271;SDS011;10295;49.812;9.866;2023-05-16T03:10:19;17.57;;;11.33;;
20271;SDS011;10295;49.812;9.866;2023-05-16T03:12:47;17.83;;;10.87;;
20271;SDS011;10295;49.812;9.866;2023-05-16T03:15:14;18.73;;;12.00;;
20271;SDS011;10295;49.812;9.866;2023-05-16T03:17:42;20.70;;;11.63;;
20271;SDS011;10295;49.812;9.866;2023-05-16T03:20:09;18.43;;;11.73;;
20271;SDS011;10295;49.812;9.866;2023-05-16T03:22:36;19.77;;;11.53;;
20271;SDS011;10295;49.812;9.866;2023-05-16T03:25:05;19.90;;;12.03;;
20271;SDS011;10295;49.812;9.866;2023-05-16T03:27:33;19.27;;;11.63;;
20271;SDS011;10295;49.812;9.866;2023-05-16T03:30:00;20.23;;;11.23;;
20271;SDS011;10295;49.812;9.866;2023-05-16T03:32:27;20.40;;;12.03;;
20271;SDS011;10295;49.812;9.866;2023-05-16T03:34:55;18.13;;;11.87;;
20271;SDS011;10295;49.812;9.866;2023-05-16T03:37:22;20.10;;;12.33;;
20271;SDS011;10295;49.812;9.866;2023-05-16T03:39:49;21.27;;;12.80;;
20271;SDS011;10295;49.812;9.866;2023-05-16T03:42:16;21.23;;;12.03;;
20271;SDS011;10295;49.812;9.866;2023-05-16T03:44:43;20.00;;;11.87;;
20271;SDS011;10295;49.812;9.866;2023-05-16T03:47:10;19.57;;;12.30;;
20271;SDS011;10295;49.812;9.866;2023-05-16T03:49:37;19.10;;;12.13;;
20271;SDS011;10295;49.812;9.866;2023-05-16T03:52:05;18.17;;;11.80;;
20271;SDS011;10295;49.812;9.866;2023-05-16T03:54:32;21.00;;;12.63;;
20271;SDS011;10295;49.812;9.866;2023-05-16T03:56:59;19.50;;;12.07;;
20271;SDS011;10295;49.812;9.866;2023-05-16T03:59:26;22.20;;;12.37;;
20271;SDS011;10295;49.812;9.866;2023-05-16T04:01:53;20.60;;;12.13;;
20271;SDS011;10295;49.812;9.866;2023-05-16T04:04:21;20.80;;;12.33;;
20271;SDS011;10295;49.812;9.866;2023-05-16T04:06:48;20.30;;;12.17;;
20271;SDS011;10295;49.812;9.866;2023-05-16T04:09:15;18.47;;;11.83;;
20271;SDS011;10295;49.812;9.866;2023-05-16T04:11:42;20.97;;;11.73;;
20271;SDS011;10295;49.812;9.866;2023-05-16T04:14:10;18.03;;;10.97;;
20271;SDS011;10295;49.812;9.866;2023-05-16T04:16:38;21.40;;;12.03;;
20271;SDS011;10295;49.812;9.866;2023-05-16T04:19:05;18.30;;;10.80;;
20271;SDS011;10295;49.812;9.866;2023-05-16T04:21:32;18.57;;;10.23;;
20271;SDS011;10295;49.812;9.866;2023-05-16T04:24:01;15.97;;;9.77;;
20271;SDS011;10295;49.812;9.866;2023-05-16T04:26:28;18.50;;;9.70;;
20271;SDS011;10295;49.812;9.866;2023-05-16T04:28:57;17.83;;;9.97;;
20271;SDS011;10295;49.812;9.866;2023-05-16T04:31:25;19.77;;;9.80;;
20271;SDS011;10295;49.812;9.866;2023-05-16T04:33:52;18.77;;;9.97;;
20271;SDS011;10295;49.812;9.866;2023-05-16T04:36:21;15.63;;;8.37;;
20271;SDS011;10295;49.812;9.866;2023-05-16T04:38:48;14.83;;;8.70;;
20271;SDS011;10295;49.812;9.866;2023-05-16T04:41:15;17.10;;;8.53;;
20271;SDS011;10295;49.812;9.866;2023-05-16T04:43:43;15.73;;;8.50;;
20271;SDS011;10295;49.812;9.866;2023-05-16T04:46:10;13.80;;;8.30;;
20271;SDS011;10295;49.812;9.866;2023-05-16T04:48:37;17.77;;;8.10;;
20271;SDS011;10295;49.812;9.866;2023-05-16T04:51:05;16.50;;;8.27;;
20271;SDS011;10295;49.812;9.866;2023-05-16T04:53:32;14.27;;;8.13;;
20271;SDS011;10295;49.812;9.866;2023-05-16T04:55:59;17.33;;;8.73;;
20271;SDS011;10295;49.812;9.866;2023-05-16T04:58:26;14.70;;;8.33;;
20271;SDS011;10295;49.812;9.866;2023-05-16T05:00:54;15.23;;;9.20;;
20271;SDS011;10295;49.812;9.866;2023-05-16T05:03:21;18.83;;;8.13;;
20271;SDS011;10295;49.812;9.866;2023-05-16T05:05:48;15.73;;;8.17;;
20271;SDS011;10295;49.812;9.866;2023-05-16T05:08:16;18.50;;;8.23;;
20271;SDS011;10295;49.812;9.866;2023-05-16T05:10:43;17.17;;;8.70;;
20271;SDS011;10295;49.812;9.866;2023-05-16T05:13:11;14.27;;;8.77;;
20271;SDS011;10295;49.812;9.866;2023-05-16T05:15:38;15.47;;;9.60;;
20271;SDS011;10295;49.812;9.866;2023-05-16T05:18:05;15.40;;;9.37;;
20271;SDS011;10295;49.812;9.866;2023-05-16T05:20:34;17.47;;;9.70;;
20271;SDS011;10295;49.812;9.866;2023-05-16T05:23:01;18.47;;;10.50;;
20271;SDS011;10295;49.812;9.866;2023-05-16T05:25:28;17.60;;;10.80;;
20271;SDS011;10295;49.812;9.866;2023-05-16T05:27:56;21.70;;;10.97;;
20271;SDS011;10295;49.812;9.866;2023-05-16T05:30:23;20.70;;;11.17;;
20271;SDS011;10295;49.812;9.866;2023-05-16T05:32:50;23.30;;;13.07;;
20271;SDS011;10295;49.812;9.866;2023-05-16T05:35:18;25.80;;;13.40;;
20271;SDS011;10295;49.812;9.866;2023-05-16T05:37:45;23.77;;;14.30;;
20271;SDS011;10295;49.812;9.866;2023-05-16T05:40:13;25.17;;;13.37;;
20271;SDS011;10295;49.812;9.866;2023-05-16T05:42:41;22.83;;;14.13;;
20271;SDS011;10295;49.812;9.866;2023-05-16T05:45:11;25.63;;;14.73;;
20271;SDS011;10295;49.812;9.866;2023-05-16T05:47:39;22.73;;;13.97;;
20271;SDS011;10295;49.812;9.866;2023-05-16T05:50:06;26.87;;;14.77;;
20271;SDS011;10295;49.812;9.866;2023-05-16T05:52:36;24.73;;;15.03;;
20271;SDS011;10295;49.812;9.866;2023-05-16T05:55:04;22.83;;;14.20;;
20271;SDS011;10295;49.812;9.866;2023-05-16T05:57:31;29.13;;;15.20;;
20271;SDS011;10295;49.812;9.866;2023-05-16T05:59:58;27.63;;;15.53;;
20271;SDS011;10295;49.812;9.866;2023-05-16T06:02:26;24.27;;;14.90;;
20271;SDS011;10295;49.812;9.866;2023-05-16T06:04:53;25.43;;;15.37;;
20271;SDS011;10295;49.812;9.866;2023-05-16T06:07:21;27.30;;;15.33;;
20271;SDS011;10295;49.812;9.866;2023-05-16T06:09:48;27.30;;;14.73;;
20271;SDS011;10295;49.812;9.866;2023-05-16T06:12:15;24.07;;;14.83;;
20271;SDS011;10295;49.812;9.866;2023-05-16T06:14:42;24.63;;;15.43;;
20271;SDS011;10295;49.812;9.866;2023-05-16T06:17:09;26.80;;;15.43;;
20271;SDS011;10295;49.812;9.866;2023-05-16T06:19:36;27.07;;;15.70;;
20271;SDS011;10295;49.812;9.866;2023-05-16T06:22:04;28.23;;;15.83;;
20271;SDS011;10295;49.812;9.866;2023-05-16T06:24:31;31.47;;;16.83;;
20271;SDS011;10295;49.812;9.866;2023-05-16T06:26:58;28.97;;;17.37;;
20271;SDS011;10295;49.812;9.866;2023-05-16T06:29:25;28.73;;;16.90;;
20271;SDS011;10295;49.812;9.866;2023-05-16T06:31:52;28.67;;;17.10;;
20271;SDS011;10295;49.812;9.866;2023-05-16T06:34:19;26.53;;;16.27;;
20271;SDS011;10295;49.812;9.866;2023-05-16T06:36:53;26.50;;;16.03;;
20271;SDS011;10295;49.812;9.866;2023-05-16T06:39:20;25.83;;;15.90;;
20271;SDS011;10295;49.812;9.866;2023-05-16T06:41:47;26.77;;;16.87;;
20271;SDS011;10295;49.812;9.866;2023-05-16T06:44:14;26.70;;;16.23;;
20271;SDS011;10295;49.812;9.866;2023-05-16T06:46:42;31.10;;;17.03;;
20271;SDS011;10295;49.812;9.866;2023-05-16T06:49:09;26.30;;;16.17;;
20271;SDS011;10295;49.812;9.866;2023-05-16T06:51:36;24.23;;;15.40;;
20271;SDS011;10295;49.812;9.866;2023-05-16T06:54:04;27.87;;;16.50;;
20271;SDS011;10295;49.812;9.866;2023-05-16T06:56:31;27.83;;;15.93;;
20271;SDS011;10295;49.812;9.866;2023-05-16T06:58:58;26.60;;;16.27;;
20271;SDS011;10295;49.812;9.866;2023-05-16T07:01:27;29.70;;;15.80;;
20271;SDS011;10295;49.812;9.866;2023-05-16T07:03:54;23.73;;;15.47;;
20271;SDS011;10295;49.812;9.866;2023-05-16T07:06:21;27.73;;;15.53;;
20271;SDS011;10295;49.812;9.866;2023-05-16T07:08:49;28.03;;;16.00;;
20271;SDS011;10295;49.812;9.866;2023-05-16T07:11:16;25.90;;;15.67;;
20271;SDS011;10295;49.812;9.866;2023-05-16T07:13:43;24.43;;;15.03;;
20271;SDS011;10295;49.812;9.866;2023-05-16T07:16:10;24.53;;;14.53;;
20271;SDS011;10295;49.812;9.866;2023-05-16T07:18:37;21.27;;;13.23;;
20271;SDS011;10295;49.812;9.866;2023-05-16T07:21:05;24.47;;;14.20;;
20271;SDS011;10295;49.812;9.866;2023-05-16T07:23:32;22.80;;;13.13;;
20271;SDS011;10295;49.812;9.866;2023-05-16T07:25:59;24.93;;;14.00;;
20271;SDS011;10295;49.812;9.866;2023-05-16T07:28:26;21.87;;;12.53;;
20271;SDS011;10295;49.812;9.866;2023-05-16T07:30:53;23.20;;;13.67;;
20271;SDS011;10295;49.812;9.866;2023-05-16T07:33:23;22.70;;;12.73;;
20271;SDS011;10295;49.812;9.866;2023-05-16T07:35:50;22.57;;;13.60;;
20271;SDS011;10295;49.812;9.866;2023-05-16T07:38:33;22.80;;;12.60;;
20271;SDS011;10295;49.812;9.866;2023-05-16T07:41:00;22.77;;;12.77;;
20271;SDS011;10295;49.812;9.866;2023-05-16T07:43:28;22.17;;;13.27;;
20271;SDS011;10295;49.812;9.866;2023-05-16T07:45:55;21.60;;;12.73;;
20271;SDS011;10295;49.812;9.866;2023-05-16T07:48:22;21.80;;;12.07;;
20271;SDS011;10295;49.812;9.866;2023-05-16T07:50:50;17.80;;;10.93;;
20271;SDS011;10295;49.812;9.866;2023-05-16T07:53:20;19.80;;;10.93;;
20271;SDS011;10295;49.812;9.866;2023-05-16T07:55:48;19.23;;;11.33;;
20271;SDS011;10295;49.812;9.866;2023-05-16T07:58:15;19.37;;;11.83;;
20271;SDS011;10295;49.812;9.866;2023-05-16T08:00:42;18.23;;;11.00;;
20271;SDS011;10295;49.812;9.866;2023-05-16T08:03:10;17.27;;;9.73;;
20271;SDS011;10295;49.812;9.866;2023-05-16T08:05:37;16.33;;;9.77;;
20271;SDS011;10295;49.812;9.866;2023-05-16T08:08:05;17.17;;;9.90;;
20271;SDS011;10295;49.812;9.866;2023-05-16T08:10:34;16.67;;;9.20;;
20271;SDS011;10295;49.812;9.866;2023-05-16T08:13:02;16.53;;;9.60;;
20271;SDS011;10295;49.812;9.866;2023-05-16T08:15:29;17.33;;;9.73;;
20271;SDS011;10295;49.812;9.866;2023-05-16T08:17:57;14.57;;;8.90;;
20271;SDS011;10295;49.812;9.866;2023-05-16T08:20:24;16.20;;;9.20;;
20271;SDS011;10295;49.812;9.866;2023-05-16T08:22:52;15.80;;;8.90;;
20271;SDS011;10295;49.812;9.866;2023-05-16T08:25:19;13.13;;;7.90;;
20271;SDS011;10295;49.812;9.866;2023-05-16T08:27:47;13.73;;;8.07;;
20271;SDS011;10295;49.812;9.866;2023-05-16T08:30:15;14.88;;;7.50;;
20271;SDS011;10295;49.812;9.866;2023-05-16T08:32:42;11.60;;;7.10;;
20271;SDS011;10295;49.812;9.866;2023-05-16T08:35:09;13.65;;;7.07;;
20271;SDS011;10295;49.812;9.866;2023-05-16T08:37:38;14.07;;;7.50;;
20271;SDS011;10295;49.812;9.866;2023-05-16T08:40:05;14.07;;;7.43;;
20271;SDS011;10295;49.812;9.866;2023-05-16T08:42:33;16.77;;;7.65;;
20271;SDS011;10295;49.812;9.866;2023-05-16T08:45:00;13.65;;;7.40;;
20271;SDS011;10295;49.812;9.866;2023-05-16T08:47:29;13.00;;;7.40;;
20271;SDS011;10295;49.812;9.866;2023-05-16T08:49:57;11.85;;;7.15;;
20271;SDS011;10295;49.812;9.866;2023-05-16T08:52:25;13.13;;;6.77;;
20271;SDS011;10295;49.812;9.866;2023-05-16T08:54:56;12.93;;;7.20;;
20271;SDS011;10295;49.812;9.866;2023-05-16T08:57:36;12.97;;;7.60;;
20271;SDS011;10295;49.812;9.866;2023-05-16T09:00:05;12.93;;;7.30;;
20271;SDS011;10295;49.812;9.866;2023-05-16T09:02:38;18.43;;;8.27;;
20271;SDS011;10295;49.812;9.866;2023-05-16T09:05:16;14.57;;;7.40;;
20271;SDS011;10295;49.812;9.866;2023-05-16T09:07:44;13.57;;;7.20;;
20271;SDS011;10295;49.812;9.866;2023-05-16T09:10:11;16.50;;;7.33;;
20271;SDS011;10295;49.812;9.866;2023-05-16T09:12:39;16.53;;;7.40;;
20271;SDS011;10295;49.812;9.866;2023-05-16T09:15:10;14.90;;;7.13;;
20271;SDS011;10295;49.812;9.866;2023-05-16T09:17:38;13.60;;;7.63;;
20271;SDS011;10295;49.812;9.866;2023-05-16T09:20:13;11.67;;;7.07;;
20271;SDS011;10295;49.812;9.866;2023-05-16T09:22:51;11.60;;;6.33;;
20271;SDS011;10295;49.812;9.866;2023-05-16T09:25:19;13.27;;;6.73;;
20271;SDS011;10295;49.812;9.866;2023-05-16T09:27:55;12.90;;;6.67;;
20271;SDS011;10295;49.812;9.866;2023-05-16T09:30:27;14.90;;;6.63;;
20271;SDS011;10295;49.812;9.866;2023-05-16T09:32:55;13.37;;;6.50;;
20271;SDS011;10295;49.812;9.866;2023-05-16T09:35:22;12.27;;;6.07;;
20271;SDS011;10295;49.812;9.866;2023-05-16T09:38:16;15.33;;;6.20;;
20271;SDS011;10295;49.812;9.866;2023-05-16T09:40:44;11.63;;;6.13;;
20271;SDS011;10295;49.812;9.866;2023-05-16T09:43:13;12.17;;;6.37;;
20271;SDS011;10295;49.812;9.866;2023-05-16T09:45:44;9.00;;;5.00;;
20271;SDS011;10295;49.812;9.866;2023-05-16T09:48:11;12.60;;;5.50;;
20271;SDS011;10295;49.812;9.866;2023-05-16T09:50:39;11.10;;;5.47;;
20271;SDS011;10295;49.812;9.866;2023-05-16T09:53:08;12.03;;;5.30;;
20271;SDS011;10295;49.812;9.866;2023-05-16T09:55:35;9.60;;;5.00;;
20271;SDS011;10295;49.812;9.866;2023-05-16T09:58:02;8.90;;;4.53;;
20271;SDS011;10295;49.812;9.866;2023-05-16T10:00:30;9.33;;;4.70;;
20271;SDS011;10295;49.812;9.866;2023-05-16T10:02:58;10.13;;;5.07;;
20271;SDS011;10295;49.812;9.866;2023-05-16T10:05:30;10.03;;;4.90;;
20271;SDS011;10295;49.812;9.866;2023-05-16T10:07:57;12.27;;;4.43;;
20271;SDS011;10295;49.812;9.866;2023-05-16T10:10:24;10.30;;;4.30;;
20271;SDS011;10295;49.812;9.866;2023-05-16T10:12:53;11.03;;;4.60;;
20271;SDS011;10295;49.812;9.866;2023-05-16T10:15:23;9.33;;;4.50;;
20271;SDS011;10295;49.812;9.866;2023-05-16T10:17:52;8.60;;;4.20;;
20271;SDS011;10295;49.812;9.866;2023-05-16T10:20:20;8.90;;;3.70;;
20271;SDS011;10295;49.812;9.866;2023-05-16T10:22:48;8.67;;;4.00;;
20271;SDS011;10295;49.812;9.866;2023-05-16T10:25:24;9.03;;;4.07;;
20271;SDS011;10295;49.812;9.866;2023-05-16T10:27:53;9.17;;;4.40;;
20271;SDS011;10295;49.812;9.866;2023-05-16T10:30:21;12.87;;;4.00;;
20271;SDS011;10295;49.812;9.866;2023-05-16T10:32:48;9.90;;;4.10;;
20271;SDS011;10295;49.812;9.866;2023-05-16T10:35:16;7.93;;;3.60;;
20271;SDS011;10295;49.812;9.866;2023-05-16T10:37:43;7.57;;;3.00;;
20271;SDS011;10295;49.812;9.866;2023-05-16T10:40:11;6.00;;;2.63;;
20271;SDS011;10295;49.812;9.866;2023-05-16T10:42:38;8.37;;;2.90;;
20271;SDS011;10295;49.812;9.866;2023-05-16T10:47:49;6.27;;;2.17;;
20271;SDS011;10295;49.812;9.866;2023-05-16T10:53:16;4.80;;;1.90;;
20271;SDS011;10295;49.812;9.866;2023-05-16T11:03:58;5.53;;;1.50;;
20271;SDS011;10295;49.812;9.866;2023-05-16T11:14:21;4.00;;;1.40;;
20271;SDS011;10295;49.812;9.866;2023-05-16T11:16:59;3.90;;;1.50;;
20271;SDS011;10295;49.812;9.866;2023-05-16T11:22:09;3.30;;;1.20;;
20271;SDS011;10295;49.812;9.866;2023-05-16T11:24:37;2.07;;;1.03;;
20271;SDS011;10295;49.812;9.866;2023-05-16T11:27:05;4.43;;;1.10;;
20271;SDS011;10295;49.812;9.866;2023-05-16T11:29:33;4.17;;;1.10;;
20271;SDS011;10295;49.812;9.866;2023-05-16T11:32:01;4.97;;;1.13;;
20271;SDS011;10295;49.812;9.866;2023-05-16T11:34:29;2.90;;;1.00;;
20271;SDS011;10295;49.812;9.866;2023-05-16T11:36:56;4.07;;;1.27;;
20271;SDS011;10295;49.812;9.866;2023-05-16T11:39:25;6.03;;;1.50;;
20271;SDS011;10295;49.812;9.866;2023-05-16T11:41:53;4.43;;;1.20;;
20271;SDS011;10295;49.812;9.866;2023-05-16T11:44:20;3.37;;;1.20;;
20271;SDS011;10295;49.812;9.866;2023-05-16T11:46:47;6.10;;;1.40;;
20271;SDS011;10295;49.812;9.866;2023-05-16T11:49:14;4.17;;;1.17;;
20271;SDS011;10295;49.812;9.866;2023-05-16T11:51:41;7.13;;;1.20;;
20271;SDS011;10295;49.812;9.866;2023-05-16T11:54:09;4.60;;;1.40;;
20271;SDS011;10295;49.812;9.866;2023-05-16T11:56:38;4.77;;;1.37;;
20271;SDS011;10295;49.812;9.866;2023-05-16T11:59:09;3.87;;;1.30;;
20271;SDS011;10295;49.812;9.866;2023-05-16T12:01:37;7.33;;;1.50;;
20271;SDS011;10295;49.812;9.866;2023-05-16T12:04:08;6.07;;;1.53;;
20271;SDS011;10295;49.812;9.866;2023-05-16T12:06:37;4.57;;;1.40;;
20271;SDS011;10295;49.812;9.866;2023-05-16T12:09:04;4.80;;;1.40;;
20271;SDS011;10295;49.812;9.866;2023-05-16T12:11:41;7.07;;;1.23;;
20271;SDS011;10295;49.812;9.866;2023-05-16T12:14:09;5.60;;;1.53;;
20271;SDS011;10295;49.812;9.866;2023-05-16T12:16:38;4.17;;;1.37;;
20271;SDS011;10295;49.812;9.866;2023-05-16T12:19:09;6.00;;;1.57;;
20271;SDS011;10295;49.812;9.866;2023-05-16T12:21:37;4.50;;;1.60;;
20271;SDS011;10295;49.812;9.866;2023-05-16T12:24:07;4.97;;;1.47;;
20271;SDS011;10295;49.812;9.866;2023-05-16T12:26:35;5.27;;;1.70;;
20271;SDS011;10295;49.812;9.866;2023-05-16T12:29:05;6.30;;;1.60;;
20271;SDS011;10295;49.812;9.866;2023-05-16T12:31:35;10.75;;;1.55;;
20271;SDS011;10295;49.812;9.866;2023-05-16T12:34:03;6.68;;;1.67;;
20271;SDS011;10295;49.812;9.866;2023-05-16T12:36:31;7.32;;;1.67;;
20271;SDS011;10295;49.812;9.866;2023-05-16T12:39:00;4.95;;;1.50;;
20271;SDS011;10295;49.812;9.866;2023-05-16T12:41:29;10.82;;;1.92;;
20271;SDS011;10295;49.812;9.866;2023-05-16T12:44:05;10.35;;;2.63;;
20271;SDS011;10295;49.812;9.866;2023-05-16T12:46:32;9.20;;;2.03;;
20271;SDS011;10295;49.812;9.866;2023-05-16T12:49:01;7.93;;;2.10;;
20271;SDS011;10295;49.812;9.866;2023-05-16T12:51:30;13.85;;;2.72;;
20271;SDS011;10295;49.812;9.866;2023-05-16T12:54:10;16.15;;;3.58;;
20271;SDS011;10295;49.812;9.866;2023-05-16T12:56:38;57.47;;;10.88;;
20271;SDS011;10295;49.812;9.866;2023-05-16T12:59:06;134.13;;;24.88;;
20271;SDS011;10295;49.812;9.866;2023-05-16T13:01:34;294.67;;;78.63;;
20271;SDS011;10295;49.812;9.866;2023-05-16T13:04:01;73.18;;;21.27;;
20271;SDS011;10295;49.812;9.866;2023-05-16T13:06:30;35.88;;;8.95;;
20271;SDS011;10295;49.812;9.866;2023-05-16T13:09:14;44.28;;;12.45;;
20271;SDS011;10295;49.812;9.866;2023-05-16T13:11:41;102.38;;;25.40;;
20271;SDS011;10295;49.812;9.866;2023-05-16T13:14:10;47.97;;;12.90;;
20271;SDS011;10295;49.812;9.866;2023-05-16T13:16:38;26.13;;;7.10;;
20271;SDS011;10295;49.812;9.866;2023-05-16T13:19:05;27.70;;;8.40;;
20271;SDS011;10295;49.812;9.866;2023-05-16T13:21:33;17.85;;;4.35;;
20271;SDS011;10295;49.812;9.866;2023-05-16T13:24:00;20.08;;;5.70;;
20271;SDS011;10295;49.812;9.866;2023-05-16T13:26:27;15.93;;;5.23;;
20271;SDS011;10295;49.812;9.866;2023-05-16T13:28:55;21.38;;;5.78;;
20271;SDS011;10295;49.812;9.866;2023-05-16T13:31:22;11.90;;;2.88;;
20271;SDS011;10295;49.812;9.866;2023-05-16T13:33:49;18.17;;;5.82;;
20271;SDS011;10295;49.812;9.866;2023-05-16T13:36:17;19.55;;;5.60;;
20271;SDS011;10295;49.812;9.866;2023-05-16T13:38:44;10.27;;;2.95;;
20271;SDS011;10295;49.812;9.866;2023-05-16T13:41:11;9.10;;;1.98;;
20271;SDS011;10295;49.812;9.866;2023-05-16T13:43:39;12.98;;;2.15;;
20271;SDS011;10295;49.812;9.866;2023-05-16T13:46:06;9.55;;;2.50;;
20271;SDS011;10295;49.812;9.866;2023-05-16T13:48:33;14.35;;;4.55;;
20271;SDS011;10295;49.812;9.866;2023-05-16T13:51:00;11.70;;;2.85;;
20271;SDS011;10295;49.812;9.866;2023-05-16T13:53:28;8.32;;;2.05;;
20271;SDS011;10295;49.812;9.866;2023-05-16T13:55:55;14.85;;;4.30;;
20271;SDS011;10295;49.812;9.866;2023-05-16T13:58:22;16.80;;;4.40;;
20271;SDS011;10295;49.812;9.866;2023-05-16T14:00:49;12.82;;;2.40;;
20271;SDS011;10295;49.812;9.866;2023-05-16T14:03:17;13.23;;;2.92;;
20271;SDS011;10295;49.812;9.866;2023-05-16T14:05:45;15.05;;;5.38;;
20271;SDS011;10295;49.812;9.866;2023-05-16T14:08:14;14.82;;;3.00;;
20271;SDS011;10295;49.812;9.866;2023-05-16T14:10:41;11.02;;;2.85;;
20271;SDS011;10295;49.812;9.866;2023-05-16T14:13:08;13.23;;;4.22;;
20271;SDS011;10295;49.812;9.866;2023-05-16T14:15:36;13.38;;;4.70;;
20271;SDS011;10295;49.812;9.866;2023-05-16T14:18:03;16.07;;;4.23;;
20271;SDS011;10295;49.812;9.866;2023-05-16T14:20:30;12.05;;;4.28;;
20271;SDS011;10295;49.812;9.866;2023-05-16T14:22:58;11.65;;;2.78;;
20271;SDS011;10295;49.812;9.866;2023-05-16T14:25:25;13.00;;;2.70;;
20271;SDS011;10295;49.812;9.866;2023-05-16T14:27:52;11.70;;;3.25;;
20271;SDS011;10295;49.812;9.866;2023-05-16T14:30:19;8.93;;;1.70;;
20271;SDS011;10295;49.812;9.866;2023-05-16T14:32:47;9.75;;;1.60;;
20271;SDS011;10295;49.812;9.866;2023-05-16T14:35:14;10.68;;;1.63;;
20271;SDS011;10295;49.812;9.866;2023-05-16T14:37:41;9.27;;;1.77;;
20271;SDS011;10295;49.812;9.866;2023-05-16T14:40:08;11.00;;;2.00;;
20271;SDS011;10295;49.812;9.866;2023-05-16T14:42:36;9.13;;;1.85;;
20271;SDS011;10295;49.812;9.866;2023-05-16T14:45:03;8.88;;;1.60;;
20271;SDS011;10295;49.812;9.866;2023-05-16T14:47:30;8.07;;;1.33;;
20271;SDS011;10295;49.812;9.866;2023-05-16T14:49:58;9.57;;;1.83;;
20271;SDS011;10295;49.812;9.866;2023-05-16T14:52:26;8.55;;;1.63;;
20271;SDS011;10295;49.812;9.866;2023-05-16T14:54:53;8.70;;;1.98;;
20271;SDS011;10295;49.812;9.866;2023-05-16T14:57:20;8.27;;;1.60;;
20271;SDS011;10295;49.812;9.866;2023-05-16T14:59:47;9.37;;;1.70;;
20271;SDS011;10295;49.812;9.866;2023-05-16T15:02:15;11.27;;;1.60;;
20271;SDS011;10295;49.812;9.866;2023-05-16T15:04:42;7.05;;;1.38;;
20271;SDS011;10295;49.812;9.866;2023-05-16T15:07:10;11.70;;;1.70;;
20271;SDS011;10295;49.812;9.866;2023-05-16T15:09:37;7.43;;;1.40;;